sensor_id;sensor_type;location;lat;lon;timestamp;temperature;humidity
22503;DHT22;11418;48.118;9.992;2023-07-24T00:02:34;15.50;99.90
22503;DHT22;11418;48.118;9.992;2023-07-24T00:06:34;15.40;99.90
22503;DHT22;11418;48.118;9.992;2023-07-24T00:10:35;15.40;99.90
22503;DHT22;11418;48.118;9.992;2023-07-24T00:14:35;15.50;99.90
22503;DHT22;11418;48.118;9.992;2023-07-24T00:18:36;15.50;99.90
22503;DHT22;11418;48.118;9.992;2023-07-24T00:22:36;15.60;99.90
22503;DHT22;11418;48.118;9.992;2023-07-24T00:26:37;15.80;99.90
22503;DHT22;11418;48.118;9.992;2023-07-24T00:30:38;16.10;99.90
22503;DHT22;11418;48.118;9.992;2023-07-24T00:34:38;16.10;99.90
22503;DHT22;11418;48.118;9.992;2023-07-24T00:38:39;15.90;99.90
22503;DHT22;11418;48.118;9.992;2023-07-24T00:42:39;16.20;99.90
22503;DHT22;11418;48.118;9.992;2023-07-24T00:46:40;16.50;99.90
22503;DHT22;11418;48.118;9.992;2023-07-24T00:50:43;16.20;99.90
22503;DHT22;11418;48.118;9.992;2023-07-24T00:54:44;16.10;99.90
22503;DHT22;11418;48.118;9.992;2023-07-24T00:58:45;16.00;99.90
22503;DHT22;11418;48.118;9.992;2023-07-24T01:02:46;16.60;99.90
22503;DHT22;11418;48.118;9.992;2023-07-24T01:06:47;16.70;99.90
22503;DHT22;11418;48.118;9.992;2023-07-24T01:10:47;16.90;99.90
22503;DHT22;11418;48.118;9.992;2023-07-24T01:19:12;16.70;99.90
22503;DHT22;11418;48.118;9.992;2023-07-24T01:27:44;16.80;99.90
22503;DHT22;11418;48.118;9.992;2023-07-24T01:31:45;16.70;99.90
22503;DHT22;11418;48.118;9.992;2023-07-24T01:35:57;16.40;99.90
22503;DHT22;11418;48.118;9.992;2023-07-24T01:39:59;16.10;99.90
22503;DHT22;11418;48.118;9.992;2023-07-24T01:44:00;16.20;99.90
22503;DHT22;11418;48.118;9.992;2023-07-24T01:48:01;16.30;99.90
22503;DHT22;11418;48.118;9.992;2023-07-24T01:52:02;16.50;99.90
22503;DHT22;11418;48.118;9.992;2023-07-24T01:56:03;16.70;99.90
22503;DHT22;11418;48.118;9.992;2023-07-24T02:00:04;16.90;99.90
22503;DHT22;11418;48.118;9.992;2023-07-24T02:04:06;17.00;99.90
22503;DHT22;11418;48.118;9.992;2023-07-24T02:08:06;17.20;99.90
22503;DHT22;11418;48.118;9.992;2023-07-24T02:12:07;17.10;99.90
22503;DHT22;11418;48.118;9.992;2023-07-24T02:16:07;16.80;99.90
22503;DHT22;11418;48.118;9.992;2023-07-24T02:20:08;16.80;99.90
22503;DHT22;11418;48.118;9.992;2023-07-24T02:24:09;17.00;99.90
22503;DHT22;11418;48.118;9.992;2023-07-24T02:28:10;16.70;99.90
22503;DHT22;11418;48.118;9.992;2023-07-24T02:32:10;16.70;99.90
22503;DHT22;11418;48.118;9.992;2023-07-24T02:36:12;16.60;99.90
22503;DHT22;11418;48.118;9.992;2023-07-24T02:40:12;16.60;99.90
22503;DHT22;11418;48.118;9.992;2023-07-24T02:44:13;16.40;99.90
22503;DHT22;11418;48.118;9.992;2023-07-24T02:48:14;16.50;99.90
22503;DHT22;11418;48.118;9.992;2023-07-24T02:52:14;16.50;99.90
22503;DHT22;11418;48.118;9.992;2023-07-24T02:56:15;16.50;99.90
22503;DHT22;11418;48.118;9.992;2023-07-24T03:00:15;16.50;99.90
22503;DHT22;11418;48.118;9.992;2023-07-24T03:04:16;16.40;99.90
22503;DHT22;11418;48.118;9.992;2023-07-24T03:08:17;16.50;99.90
22503;DHT22;11418;48.118;9.992;2023-07-24T03:12:17;16.20;99.90
22503;DHT22;11418;48.118;9.992;2023-07-24T03:16:18;16.00;99.90
22503;DHT22;11418;48.118;9.992;2023-07-24T03:20:20;15.90;99.90
22503;DHT22;11418;48.118;9.992;2023-07-24T03:24:21;15.80;99.90
22503;DHT22;11418;48.118;9.992;2023-07-24T03:28:21;15.80;99.90
22503;DHT22;11418;48.118;9.992;2023-07-24T03:32:22;15.70;99.90
22503;DHT22;11418;48.118;9.992;2023-07-24T03:36:22;15.80;99.90
22503;DHT22;11418;48.118;9.992;2023-07-24T03:40:23;15.80;99.90
22503;DHT22;11418;48.118;9.992;2023-07-24T03:44:24;15.90;99.90
22503;DHT22;11418;48.118;9.992;2023-07-24T03:48:25;15.90;99.90
22503;DHT22;11418;48.118;9.992;2023-07-24T03:52:25;16.00;99.90
22503;DHT22;11418;48.118;9.992;2023-07-24T03:56:26;15.80;99.90
22503;DHT22;11418;48.118;9.992;2023-07-24T04:00:26;16.50;99.90
22503;DHT22;11418;48.118;9.992;2023-07-24T04:04:27;16.40;99.90
22503;DHT22;11418;48.118;9.992;2023-07-24T04:08:28;16.30;99.90
22503;DHT22;11418;48.118;9.992;2023-07-24T04:12:29;16.30;99.90
22503;DHT22;11418;48.118;9.992;2023-07-24T04:16:29;15.90;99.90
22503;DHT22;11418;48.118;9.992;2023-07-24T04:20:30;15.90;99.90
22503;DHT22;11418;48.118;9.992;2023-07-24T04:24:30;15.70;99.90
22503;DHT22;11418;48.118;9.992;2023-07-24T04:28:31;15.70;99.90
22503;DHT22;11418;48.118;9.992;2023-07-24T04:32:32;15.70;99.90
22503;DHT22;11418;48.118;9.992;2023-07-24T04:36:32;16.00;99.90
22503;DHT22;11418;48.118;9.992;2023-07-24T04:40:33;16.00;99.90
22503;DHT22;11418;48.118;9.992;2023-07-24T04:44:33;16.00;99.90
22503;DHT22;11418;48.118;9.992;2023-07-24T04:48:34;16.10;99.90
22503;DHT22;11418;48.118;9.992;2023-07-24T04:52:34;16.30;99.90
22503;DHT22;11418;48.118;9.992;2023-07-24T04:56:35;16.30;99.90
22503;DHT22;11418;48.118;9.992;2023-07-24T05:00:35;16.50;99.90
22503;DHT22;11418;48.118;9.992;2023-07-24T05:04:36;16.80;99.90
22503;DHT22;11418;48.118;9.992;2023-07-24T05:08:36;16.80;99.90
22503;DHT22;11418;48.118;9.992;2023-07-24T05:12:37;17.10;99.90
22503;DHT22;11418;48.118;9.992;2023-07-24T05:16:37;17.20;99.90
22503;DHT22;11418;48.118;9.992;2023-07-24T05:20:38;17.10;99.90
22503;DHT22;11418;48.118;9.992;2023-07-24T05:24:38;17.30;99.90
22503;DHT22;11418;48.118;9.992;2023-07-24T05:28:39;17.20;99.90
22503;DHT22;11418;48.118;9.992;2023-07-24T05:32:39;17.20;99.90
22503;DHT22;11418;48.118;9.992;2023-07-24T05:36:40;17.30;99.90
22503;DHT22;11418;48.118;9.992;2023-07-24T05:40:41;17.90;99.90
22503;DHT22;11418;48.118;9.992;2023-07-24T05:44:42;17.90;99.90
22503;DHT22;11418;48.118;9.992;2023-07-24T05:48:42;18.60;99.90
22503;DHT22;11418;48.118;9.992;2023-07-24T05:57:40;18.40;99.90
22503;DHT22;11418;48.118;9.992;2023-07-24T06:01:40;17.80;99.90
22503;DHT22;11418;48.118;9.992;2023-07-24T06:05:41;17.40;99.90
22503;DHT22;11418;48.118;9.992;2023-07-24T06:09:41;17.40;99.90
22503;DHT22;11418;48.118;9.992;2023-07-24T06:13:42;17.40;99.90
22503;DHT22;11418;48.118;9.992;2023-07-24T06:17:43;17.40;99.90
22503;DHT22;11418;48.118;9.992;2023-07-24T06:21:43;17.20;99.90
22503;DHT22;11418;48.118;9.992;2023-07-24T06:25:44;17.10;99.90
22503;DHT22;11418;48.118;9.992;2023-07-24T06:29:44;17.10;99.90
22503;DHT22;11418;48.118;9.992;2023-07-24T06:33:45;17.10;99.90
22503;DHT22;11418;48.118;9.992;2023-07-24T06:37:45;16.90;99.90
22503;DHT22;11418;48.118;9.992;2023-07-24T06:41:46;17.00;99.90
22503;DHT22;11418;48.118;9.992;2023-07-24T06:45:47;16.80;99.90
22503;DHT22;11418;48.118;9.992;2023-07-24T06:49:47;16.70;99.90
22503;DHT22;11418;48.118;9.992;2023-07-24T06:53:48;16.80;99.90
22503;DHT22;11418;48.118;9.992;2023-07-24T06:57:48;16.60;99.90
22503;DHT22;11418;48.118;9.992;2023-07-24T07:01:49;16.50;99.90
22503;DHT22;11418;48.118;9.992;2023-07-24T07:05:49;16.50;99.90
22503;DHT22;11418;48.118;9.992;2023-07-24T07:09:50;16.50;99.90
22503;DHT22;11418;48.118;9.992;2023-07-24T07:13:50;16.70;99.90
22503;DHT22;11418;48.118;9.992;2023-07-24T07:17:51;17.30;99.90
22503;DHT22;11418;48.118;9.992;2023-07-24T07:21:51;17.10;99.90
22503;DHT22;11418;48.118;9.992;2023-07-24T07:25:52;17.40;99.90
22503;DHT22;11418;48.118;9.992;2023-07-24T07:29:52;17.80;99.90
22503;DHT22;11418;48.118;9.992;2023-07-24T07:33:53;18.10;99.90
22503;DHT22;11418;48.118;9.992;2023-07-24T07:37:53;18.20;99.90
22503;DHT22;11418;48.118;9.992;2023-07-24T07:41:54;18.40;99.90
22503;DHT22;11418;48.118;9.992;2023-07-24T07:45:55;18.80;99.90
22503;DHT22;11418;48.118;9.992;2023-07-24T07:49:56;19.10;99.90
22503;DHT22;11418;48.118;9.992;2023-07-24T07:53:57;19.50;99.90
22503;DHT22;11418;48.118;9.992;2023-07-24T07:57:58;19.80;99.90
22503;DHT22;11418;48.118;9.992;2023-07-24T08:01:58;20.10;99.90
22503;DHT22;11418;48.118;9.992;2023-07-24T08:05:59;20.10;99.90
22503;DHT22;11418;48.118;9.992;2023-07-24T08:09:59;20.40;99.90
22503;DHT22;11418;48.118;9.992;2023-07-24T08:14:00;20.70;99.90
22503;DHT22;11418;48.118;9.992;2023-07-24T08:18:00;20.90;99.90
22503;DHT22;11418;48.118;9.992;2023-07-24T08:22:01;21.30;99.90
22503;DHT22;11418;48.118;9.992;2023-07-24T08:26:01;21.30;99.90
22503;DHT22;11418;48.118;9.992;2023-07-24T08:30:03;21.60;99.90
22503;DHT22;11418;48.118;9.992;2023-07-24T08:34:03;21.90;99.90
22503;DHT22;11418;48.118;9.992;2023-07-24T08:38:04;22.10;99.90
22503;DHT22;11418;48.118;9.992;2023-07-24T08:42:09;22.20;99.90
22503;DHT22;11418;48.118;9.992;2023-07-24T08:46:10;22.60;99.90
22503;DHT22;11418;48.118;9.992;2023-07-24T08:50:11;23.00;99.90
22503;DHT22;11418;48.118;9.992;2023-07-24T08:54:12;23.30;99.90
22503;DHT22;11418;48.118;9.992;2023-07-24T08:58:13;23.30;99.90
22503;DHT22;11418;48.118;9.992;2023-07-24T09:02:14;23.20;99.90
22503;DHT22;11418;48.118;9.992;2023-07-24T09:06:14;23.60;99.90
22503;DHT22;11418;48.118;9.992;2023-07-24T09:10:15;23.80;99.90
22503;DHT22;11418;48.118;9.992;2023-07-24T09:14:21;23.60;99.90
22503;DHT22;11418;48.118;9.992;2023-07-24T09:18:22;23.50;99.90
22503;DHT22;11418;48.118;9.992;2023-07-24T09:22:23;23.20;99.90
22503;DHT22;11418;48.118;9.992;2023-07-24T09:26:23;22.90;99.90
22503;DHT22;11418;48.118;9.992;2023-07-24T09:30:24;23.60;99.90
22503;DHT22;11418;48.118;9.992;2023-07-24T09:34:25;23.80;99.90
22503;DHT22;11418;48.118;9.992;2023-07-24T09:38:29;23.40;99.90
22503;DHT22;11418;48.118;9.992;2023-07-24T09:42:34;23.10;99.90
22503;DHT22;11418;48.118;9.992;2023-07-24T09:46:35;23.30;99.90
22503;DHT22;11418;48.118;9.992;2023-07-24T09:50:36;24.00;99.90
22503;DHT22;11418;48.118;9.992;2023-07-24T09:55:26;24.60;99.90
22503;DHT22;11418;48.118;9.992;2023-07-24T09:59:02;25.40;99.90
22503;DHT22;11418;48.118;9.992;2023-07-24T10:03:03;26.20;99.90
22503;DHT22;11418;48.118;9.992;2023-07-24T10:07:05;26.50;99.90
22503;DHT22;11418;48.118;9.992;2023-07-24T10:11:11;27.00;99.90
22503;DHT22;11418;48.118;9.992;2023-07-24T10:15:12;27.10;99.90
22503;DHT22;11418;48.118;9.992;2023-07-24T10:19:14;26.80;99.90
22503;DHT22;11418;48.118;9.992;2023-07-24T10:23:19;26.90;99.90
22503;DHT22;11418;48.118;9.992;2023-07-24T10:27:23;27.20;99.90
22503;DHT22;11418;48.118;9.992;2023-07-24T10:31:25;27.90;99.90
22503;DHT22;11418;48.118;9.992;2023-07-24T10:35:46;28.50;99.90
22503;DHT22;11418;48.118;9.992;2023-07-24T10:39:47;28.30;99.90
22503;DHT22;11418;48.118;9.992;2023-07-24T10:43:50;28.50;99.90
22503;DHT22;11418;48.118;9.992;2023-07-24T10:47:50;28.20;99.90
22503;DHT22;11418;48.118;9.992;2023-07-24T10:51:56;27.80;99.90
22503;DHT22;11418;48.118;9.992;2023-07-24T10:55:57;27.10;99.90
22503;DHT22;11418;48.118;9.992;2023-07-24T11:00:00;27.40;99.90
22503;DHT22;11418;48.118;9.992;2023-07-24T11:04:00;27.90;99.90
22503;DHT22;11418;48.118;9.992;2023-07-24T11:08:09;27.40;99.90
22503;DHT22;11418;48.118;9.992;2023-07-24T11:16:11;23.60;99.90
22503;DHT22;11418;48.118;9.992;2023-07-24T11:20:15;21.20;99.90
22503;DHT22;11418;48.118;9.992;2023-07-24T11:24:17;19.30;99.90
22503;DHT22;11418;48.118;9.992;2023-07-24T11:28:18;18.70;99.90
22503;DHT22;11418;48.118;9.992;2023-07-24T11:32:20;18.50;99.90
22503;DHT22;11418;48.118;9.992;2023-07-24T11:36:21;18.40;99.90
22503;DHT22;11418;48.118;9.992;2023-07-24T11:40:34;18.30;99.90
22503;DHT22;11418;48.118;9.992;2023-07-24T11:44:35;18.40;99.90
22503;DHT22;11418;48.118;9.992;2023-07-24T11:48:41;18.50;99.90
22503;DHT22;11418;48.118;9.992;2023-07-24T11:52:46;18.50;99.90
22503;DHT22;11418;48.118;9.992;2023-07-24T11:56:47;18.50;99.90
22503;DHT22;11418;48.118;9.992;2023-07-24T12:00:49;18.50;99.90
22503;DHT22;11418;48.118;9.992;2023-07-24T12:04:55;18.50;99.90
22503;DHT22;11418;48.118;9.992;2023-07-24T12:09:03;18.30;99.90
22503;DHT22;11418;48.118;9.992;2023-07-24T12:13:05;18.20;99.90
22503;DHT22;11418;48.118;9.992;2023-07-24T12:17:05;18.00;99.90
22503;DHT22;11418;48.118;9.992;2023-07-24T12:21:10;18.00;99.90
22503;DHT22;11418;48.118;9.992;2023-07-24T12:25:10;18.20;99.90
22503;DHT22;11418;48.118;9.992;2023-07-24T12:29:11;18.30;99.90
22503;DHT22;11418;48.118;9.992;2023-07-24T12:33:11;18.10;99.90
22503;DHT22;11418;48.118;9.992;2023-07-24T12:37:12;18.30;99.90
22503;DHT22;11418;48.118;9.992;2023-07-24T12:41:12;18.80;99.90
22503;DHT22;11418;48.118;9.992;2023-07-24T12:45:13;18.90;99.90
22503;DHT22;11418;48.118;9.992;2023-07-24T12:49:13;19.90;99.90
22503;DHT22;11418;48.118;9.992;2023-07-24T12:53:14;22.40;99.90
22503;DHT22;11418;48.118;9.992;2023-07-24T12:57:14;22.90;99.90
22503;DHT22;11418;48.118;9.992;2023-07-24T13:01:15;23.10;99.90
22503;DHT22;11418;48.118;9.992;2023-07-24T13:05:16;23.30;99.90
22503;DHT22;11418;48.118;9.992;2023-07-24T13:09:18;24.40;99.90
22503;DHT22;11418;48.118;9.992;2023-07-24T13:13:18;24.60;99.90
22503;DHT22;11418;48.118;9.992;2023-07-24T13:17:19;24.70;99.90
22503;DHT22;11418;48.118;9.992;2023-07-24T13:21:19;24.80;99.90
22503;DHT22;11418;48.118;9.992;2023-07-24T13:25:20;24.90;99.90
22503;DHT22;11418;48.118;9.992;2023-07-24T13:29:21;26.30;99.90
22503;DHT22;11418;48.118;9.992;2023-07-24T13:33:22;26.20;99.90
22503;DHT22;11418;48.118;9.992;2023-07-24T13:37:22;28.70;99.90
22503;DHT22;11418;48.118;9.992;2023-07-24T13:41:24;30.80;99.90
22503;DHT22;11418;48.118;9.992;2023-07-24T13:45:25;32.30;99.90
22503;DHT22;11418;48.118;9.992;2023-07-24T13:49:25;32.40;99.90
22503;DHT22;11418;48.118;9.992;2023-07-24T13:53:26;30.20;99.90
22503;DHT22;11418;48.118;9.992;2023-07-24T13:57:26;31.10;99.90
22503;DHT22;11418;48.118;9.992;2023-07-24T14:01:27;31.40;99.90
22503;DHT22;11418;48.118;9.992;2023-07-24T14:05:27;31.40;99.90
22503;DHT22;11418;48.118;9.992;2023-07-24T14:09:29;31.60;99.90
22503;DHT22;11418;48.118;9.992;2023-07-24T14:13:31;31.90;99.90
22503;DHT22;11418;48.118;9.992;2023-07-24T14:17:31;30.70;99.90
22503;DHT22;11418;48.118;9.992;2023-07-24T14:21:32;30.00;99.90
22503;DHT22;11418;48.118;9.992;2023-07-24T14:25:33;28.90;99.90
22503;DHT22;11418;48.118;9.992;2023-07-24T14:29:33;30.90;99.90
22503;DHT22;11418;48.118;9.992;2023-07-24T14:33:34;29.30;99.90
22503;DHT22;11418;48.118;9.992;2023-07-24T14:37:34;28.40;99.90
22503;DHT22;11418;48.118;9.992;2023-07-24T14:41:35;27.20;99.90
22503;DHT22;11418;48.118;9.992;2023-07-24T14:45:35;25.70;99.90
22503;DHT22;11418;48.118;9.992;2023-07-24T14:49:36;24.70;99.90
22503;DHT22;11418;48.118;9.992;2023-07-24T14:53:36;24.10;99.90
22503;DHT22;11418;48.118;9.992;2023-07-24T14:57:37;23.50;99.90
22503;DHT22;11418;48.118;9.992;2023-07-24T15:01:39;22.80;99.90
22503;DHT22;11418;48.118;9.992;2023-07-24T15:05:39;22.40;99.90
22503;DHT22;11418;48.118;9.992;2023-07-24T15:09:41;22.10;99.90
22503;DHT22;11418;48.118;9.992;2023-07-24T15:13:42;21.90;99.90
22503;DHT22;11418;48.118;9.992;2023-07-24T15:17:42;21.90;99.90
22503;DHT22;11418;48.118;9.992;2023-07-24T15:21:43;21.30;99.90
22503;DHT22;11418;48.118;9.992;2023-07-24T15:25:43;20.50;99.90
22503;DHT22;11418;48.118;9.992;2023-07-24T15:29:44;20.30;99.90
22503;DHT22;11418;48.118;9.992;2023-07-24T15:33:46;19.90;99.90
22503;DHT22;11418;48.118;9.992;2023-07-24T15:37:47;19.80;99.90
22503;DHT22;11418;48.118;9.992;2023-07-24T15:41:49;19.70;99.90
22503;DHT22;11418;48.118;9.992;2023-07-24T15:45:49;19.50;99.90
22503;DHT22;11418;48.118;9.992;2023-07-24T15:49:50;19.40;99.90
22503;DHT22;11418;48.118;9.992;2023-07-24T15:53:50;19.30;99.90
22503;DHT22;11418;48.118;9.992;2023-07-24T15:57:51;19.20;99.90
22503;DHT22;11418;48.118;9.992;2023-07-24T16:01:51;18.70;99.90
22503;DHT22;11418;48.118;9.992;2023-07-24T16:05:52;18.80;99.90
22503;DHT22;11418;48.118;9.992;2023-07-24T16:09:52;18.60;99.90
22503;DHT22;11418;48.118;9.992;2023-07-24T16:13:53;18.50;99.90
22503;DHT22;11418;48.118;9.992;2023-07-24T16:17:53;18.70;99.90
22503;DHT22;11418;48.118;9.992;2023-07-24T16:21:54;18.80;99.90
22503;DHT22;11418;48.118;9.992;2023-07-24T16:25:56;19.20;99.90
22503;DHT22;11418;48.118;9.992;2023-07-24T16:29:56;19.70;99.90
22503;DHT22;11418;48.118;9.992;2023-07-24T16:33:58;20.00;99.90
22503;DHT22;11418;48.118;9.992;2023-07-24T16:37:59;20.10;99.90
22503;DHT22;11418;48.118;9.992;2023-07-24T16:41:59;20.50;99.90
22503;DHT22;11418;48.118;9.992;2023-07-24T16:46:00;20.70;99.90
22503;DHT22;11418;48.118;9.992;2023-07-24T16:50:00;20.60;99.90
22503;DHT22;11418;48.118;9.992;2023-07-24T16:54:01;20.50;99.90
22503;DHT22;11418;48.118;9.992;2023-07-24T16:58:02;20.30;99.90
22503;DHT22;11418;48.118;9.992;2023-07-24T17:02:02;20.40;99.90
22503;DHT22;11418;48.118;9.992;2023-07-24T17:06:03;20.30;99.90
22503;DHT22;11418;48.118;9.992;2023-07-24T17:10:04;20.10;99.90
22503;DHT22;11418;48.118;9.992;2023-07-24T17:14:04;20.10;99.90
22503;DHT22;11418;48.118;9.992;2023-07-24T17:18:05;20.50;99.90
22503;DHT22;11418;48.118;9.992;2023-07-24T17:22:06;20.60;99.90
22503;DHT22;11418;48.118;9.992;2023-07-24T17:26:06;21.10;99.90
22503;DHT22;11418;48.118;9.992;2023-07-24T17:30:07;21.20;99.90
22503;DHT22;11418;48.118;9.992;2023-07-24T17:34:08;21.20;99.90
22503;DHT22;11418;48.118;9.992;2023-07-24T17:38:08;21.20;99.90
22503;DHT22;11418;48.118;9.992;2023-07-24T17:42:09;21.10;99.90
22503;DHT22;11418;48.118;9.992;2023-07-24T17:46:09;21.20;99.90
22503;DHT22;11418;48.118;9.992;2023-07-24T17:50:10;21.20;99.90
22503;DHT22;11418;48.118;9.992;2023-07-24T17:54:11;20.90;99.90
22503;DHT22;11418;48.118;9.992;2023-07-24T17:58:11;20.90;99.90
22503;DHT22;11418;48.118;9.992;2023-07-24T18:02:12;20.50;99.90
22503;DHT22;11418;48.118;9.992;2023-07-24T18:06:12;20.10;99.90
22503;DHT22;11418;48.118;9.992;2023-07-24T18:10:13;20.10;99.90
22503;DHT22;11418;48.118;9.992;2023-07-24T18:14:14;20.30;99.90
22503;DHT22;11418;48.118;9.992;2023-07-24T18:18:14;20.10;99.90
22503;DHT22;11418;48.118;9.992;2023-07-24T18:22:15;19.80;99.90
22503;DHT22;11418;48.118;9.992;2023-07-24T18:26:17;19.60;99.90
22503;DHT22;11418;48.118;9.992;2023-07-24T18:30:18;19.40;99.90
22503;DHT22;11418;48.118;9.992;2023-07-24T18:34:19;19.10;99.90
22503;DHT22;11418;48.118;9.992;2023-07-24T18:38:20;19.00;99.90
22503;DHT22;11418;48.118;9.992;2023-07-24T18:42:20;18.90;99.90
22503;DHT22;11418;48.118;9.992;2023-07-24T18:46:21;19.00;99.90
22503;DHT22;11418;48.118;9.992;2023-07-24T18:50:21;19.00;99.90
22503;DHT22;11418;48.118;9.992;2023-07-24T18:54:22;18.90;99.90
22503;DHT22;11418;48.118;9.992;2023-07-24T18:58:22;18.80;99.90
22503;DHT22;11418;48.118;9.992;2023-07-24T19:02:23;18.80;99.90
22503;DHT22;11418;48.118;9.992;2023-07-24T19:06:23;18.60;99.90
22503;DHT22;11418;48.118;9.992;2023-07-24T19:10:24;18.60;99.90
22503;DHT22;11418;48.118;9.992;2023-07-24T19:14:25;18.40;99.90
22503;DHT22;11418;48.118;9.992;2023-07-24T19:18:25;18.40;99.90
22503;DHT22;11418;48.118;9.992;2023-07-24T19:22:26;18.30;99.90
22503;DHT22;11418;48.118;9.992;2023-07-24T19:26:27;18.20;99.90
22503;DHT22;11418;48.118;9.992;2023-07-24T19:30:27;18.10;99.90
22503;DHT22;11418;48.118;9.992;2023-07-24T19:34:28;18.00;99.90
22503;DHT22;11418;48.118;9.992;2023-07-24T19:38:28;17.80;99.90
22503;DHT22;11418;48.118;9.992;2023-07-24T19:42:29;17.90;99.90
22503;DHT22;11418;48.118;9.992;2023-07-24T19:46:29;17.80;99.90
22503;DHT22;11418;48.118;9.992;2023-07-24T19:50:30;17.80;99.90
22503;DHT22;11418;48.118;9.992;2023-07-24T19:54:30;17.80;99.90
22503;DHT22;11418;48.118;9.992;2023-07-24T19:58:31;17.70;99.90
22503;DHT22;11418;48.118;9.992;2023-07-24T20:02:35;18.00;99.90
22503;DHT22;11418;48.118;9.992;2023-07-24T20:06:36;17.90;99.90
22503;DHT22;11418;48.118;9.992;2023-07-24T20:10:36;17.80;99.90
22503;DHT22;11418;48.118;9.992;2023-07-24T20:14:37;17.90;99.90
22503;DHT22;11418;48.118;9.992;2023-07-24T20:18:37;18.00;99.90
22503;DHT22;11418;48.118;9.992;2023-07-24T20:22:38;18.00;99.90
22503;DHT22;11418;48.118;9.992;2023-07-24T20:26:38;17.90;99.90
22503;DHT22;11418;48.118;9.992;2023-07-24T20:30:39;17.90;99.90
22503;DHT22;11418;48.118;9.992;2023-07-24T20:34:39;18.00;99.90
22503;DHT22;11418;48.118;9.992;2023-07-24T20:38:40;17.90;99.90
22503;DHT22;11418;48.118;9.992;2023-07-24T20:42:40;17.80;99.90
22503;DHT22;11418;48.118;9.992;2023-07-24T20:46:41;17.80;99.90
22503;DHT22;11418;48.118;9.992;2023-07-24T20:50:42;17.60;99.90
22503;DHT22;11418;48.118;9.992;2023-07-24T20:54:42;17.60;99.90
22503;DHT22;11418;48.118;9.992;2023-07-24T20:58:43;17.50;99.90
22503;DHT22;11418;48.118;9.992;2023-07-24T21:02:44;17.50;99.90
22503;DHT22;11418;48.118;9.992;2023-07-24T21:06:44;17.60;99.90
22503;DHT22;11418;48.118;9.992;2023-07-24T21:10:45;17.40;99.90
22503;DHT22;11418;48.118;9.992;2023-07-24T21:14:46;17.20;99.90
22503;DHT22;11418;48.118;9.992;2023-07-24T21:18:46;17.20;99.90
22503;DHT22;11418;48.118;9.992;2023-07-24T21:22:47;17.10;99.90
22503;DHT22;11418;48.118;9.992;2023-07-24T21:26:48;17.20;99.90
22503;DHT22;11418;48.118;9.992;2023-07-24T21:30:49;17.10;99.90
22503;DHT22;11418;48.118;9.992;2023-07-24T21:34:49;17.00;99.90
22503;DHT22;11418;48.118;9.992;2023-07-24T21:38:51;17.10;99.90
22503;DHT22;11418;48.118;9.992;2023-07-24T21:42:51;17.10;99.90
22503;DHT22;11418;48.118;9.992;2023-07-24T21:46:52;17.30;99.90
22503;DHT22;11418;48.118;9.992;2023-07-24T21:50:52;17.30;99.90
22503;DHT22;11418;48.118;9.992;2023-07-24T21:54:53;17.30;99.90
22503;DHT22;11418;48.118;9.992;2023-07-24T21:58:53;17.20;99.90
22503;DHT22;11418;48.118;9.992;2023-07-24T22:02:54;17.10;99.90
22503;DHT22;11418;48.118;9.992;2023-07-24T22:06:54;17.10;99.90
22503;DHT22;11418;48.118;9.992;2023-07-24T22:10:55;17.00;99.90
22503;DHT22;11418;48.118;9.992;2023-07-24T22:14:56;16.80;99.90
22503;DHT22;11418;48.118;9.992;2023-07-24T22:18:56;16.70;99.90
22503;DHT22;11418;48.118;9.992;2023-07-24T22:22:57;16.70;99.90
22503;DHT22;11418;48.118;9.992;2023-07-24T22:26:57;16.60;99.90
22503;DHT22;11418;48.118;9.992;2023-07-24T22:30:58;16.60;99.90
22503;DHT22;11418;48.118;9.992;2023-07-24T22:34:58;16.50;99.90
22503;DHT22;11418;48.118;9.992;2023-07-24T22:38:59;16.40;99.90
22503;DHT22;11418;48.118;9.992;2023-07-24T22:43:02;16.40;99.90
22503;DHT22;11418;48.118;9.992;2023-07-24T22:47:03;16.30;99.90
22503;DHT22;11418;48.118;9.992;2023-07-24T22:51:04;16.40;99.90
22503;DHT22;11418;48.118;9.992;2023-07-24T22:55:05;16.40;99.90
22503;DHT22;11418;48.118;9.992;2023-07-24T22:59:26;16.40;99.90
22503;DHT22;11418;48.118;9.992;2023-07-24T23:03:26;16.30;99.90
22503;DHT22;11418;48.118;9.992;2023-07-24T23:07:27;16.30;99.90
22503;DHT22;11418;48.118;9.992;2023-07-24T23:11:27;16.30;99.90
22503;DHT22;11418;48.118;9.992;2023-07-24T23:15:28;16.30;99.90
22503;DHT22;11418;48.118;9.992;2023-07-24T23:19:28;16.30;99.90
22503;DHT22;11418;48.118;9.992;2023-07-24T23:23:29;16.30;99.90
22503;DHT22;11418;48.118;9.992;2023-07-24T23:27:29;16.30;99.90
22503;DHT22;11418;48.118;9.992;2023-07-24T23:31:30;16.30;99.90
22503;DHT22;11418;48.118;9.992;2023-07-24T23:35:34;16.40;99.90
22503;DHT22;11418;48.118;9.992;2023-07-24T23:39:34;16.40;99.90
22503;DHT22;11418;48.118;9.992;2023-07-24T23:43:35;16.30;99.90
22503;DHT22;11418;48.118;9.992;2023-07-24T23:47:35;16.30;99.90
22503;DHT22;11418;48.118;9.992;2023-07-24T23:51:36;16.30;99.90
22503;DHT22;11418;48.118;9.992;2023-07-24T23:55:36;16.70;99.90
22503;DHT22;11418;48.118;9.992;2023-07-24T23:59:37;16.90;99.90
